Time;durP1;ratioP1;P1;durP2;ratioP2;P2;SDS_P1;SDS_P2;PMS_P1;PMS_P2;Temp;Humidity;BMP_temperature;BMP_pressure;BME280_temperature;BME280_humidity;BME280_pressure;Samples;Min_cycle;Max_cycle;Signal;HPM_P1;HPM_P2
2022/01/13 00:00:21;;;;;;;1999.90;999.90;;;;;;;-1.41;63.07;103307.97;4987647;28;97825;-72
2022/01/13 00:02:49;;;;;;;1999.90;999.90;;;;;;;-1.44;63.17;103313.81;4982760;28;97122;-73
2022/01/13 00:05:18;;;;;;;1999.90;999.90;;;;;;;-1.48;63.33;103316.84;4984560;28;97065;-72
2022/01/13 00:07:46;;;;;;;1999.90;999.90;;;;;;;-1.48;63.62;103319.44;4987580;28;98417;-71
2022/01/13 00:10:13;;;;;;;1999.90;999.90;;;;;;;-1.47;63.13;103323.00;4989769;28;97638;-71
2022/01/13 00:12:44;;;;;;;1999.90;999.90;;;;;;;-1.45;63.07;103332.81;4987125;28;96956;-72
2022/01/13 00:15:25;;;;;;;1999.90;999.90;;;;;;;-1.45;63.13;103327.59;4986081;28;96804;-72
2022/01/13 00:18:02;;;;;;;1999.90;999.90;;;;;;;-1.45;63.07;103334.53;4990369;28;98572;-70
2022/01/13 00:26:01;;;;;;;1999.90;999.90;;;;;;;-1.49;63.21;103314.06;4962967;28;97156;-72
2022/01/13 00:28:30;;;;;;;1999.90;999.90;;;;;;;-1.48;63.20;103315.91;4985241;28;100534;-72
2022/01/13 00:30:59;;;;;;;1999.90;999.90;;;;;;;-1.45;62.99;103318.88;4968335;28;100408;-71
2022/01/13 00:33:27;;;;;;;1999.90;999.90;;;;;;;-1.45;63.21;103322.38;4970300;28;98001;-72
2022/01/13 00:35:58;;;;;;;1999.90;999.90;;;;;;;-1.42;62.90;103314.91;4986222;28;97277;-70
2022/01/13 00:38:26;;;;;;;1999.90;999.90;;;;;;;-1.45;62.84;103306.72;4970922;28;97120;-74
2022/01/13 00:40:54;;;;;;;1999.90;999.90;;;;;;;-1.44;63.09;103302.44;4969405;28;97502;-72
2022/01/13 00:43:22;;;;;;;1999.90;999.90;;;;;;;-1.43;63.18;103299.06;4970516;28;96875;-73
2022/01/13 00:45:51;;;;;;;1999.90;999.90;;;;;;;-1.45;62.57;103311.94;4986313;28;96962;-72
2022/01/13 00:48:19;;;;;;;1999.90;999.90;;;;;;;-1.42;62.67;103308.75;4986343;28;96917;-73
2022/01/13 00:50:48;;;;;;;1999.90;999.90;;;;;;;-1.44;62.86;103302.44;4981300;28;99252;-72
2022/01/13 00:53:16;;;;;;;1999.90;999.90;;;;;;;-1.45;63.27;103296.25;5005112;28;97436;-72
2022/01/13 00:55:49;;;;;;;1999.90;999.90;;;;;;;-1.47;62.81;103289.94;4989124;28;96853;-72
2022/01/13 00:58:17;;;;;;;1999.90;999.90;;;;;;;-1.47;63.02;103287.34;4986160;28;98907;-73
2022/01/13 01:00:46;;;;;;;1999.90;999.90;;;;;;;-1.47;63.30;103287.34;4987561;28;98215;-73
2022/01/13 01:03:15;;;;;;;1999.90;999.90;;;;;;;-1.47;62.68;103289.03;4985433;28;98439;-73
2022/01/13 01:05:43;;;;;;;1999.90;999.90;;;;;;;-1.48;62.73;103287.19;4987210;28;97299;-72
2022/01/13 01:08:12;;;;;;;1999.90;999.90;;;;;;;-1.47;63.07;103283.81;4985104;28;100701;-72
2022/01/13 01:10:45;;;;;;;1999.90;999.90;;;;;;;-1.45;62.85;103285.81;4987889;28;98193;-71
2022/01/13 01:13:16;;;;;;;1999.90;999.90;;;;;;;-1.45;63.15;103290.13;4986700;28;96762;-71
2022/01/13 01:15:48;;;;;;;1999.90;999.90;;;;;;;-1.45;62.81;103287.53;4987553;28;96784;-71
2022/01/13 01:18:28;;;;;;;1999.90;999.90;;;;;;;-1.46;62.54;103286.59;4985758;28;99305;-71
2022/01/13 01:21:18;;;;;;;1999.90;999.90;;;;;;;-1.43;62.94;103286.00;4985969;28;101146;-71
2022/01/13 01:24:11;;;;;;;1999.90;999.90;;;;;;;-1.44;63.11;103291.97;4981015;28;99293;-71
2022/01/13 01:26:42;;;;;;;1999.90;999.90;;;;;;;-1.45;63.39;103290.13;4989774;28;99202;-72
2022/01/13 01:29:18;;;;;;;1999.90;999.90;;;;;;;-1.47;63.17;103294.28;5000593;28;98284;-73
2022/01/13 01:31:49;;;;;;;1999.90;999.90;;;;;;;-1.50;63.15;103291.28;4974698;28;98802;-73
2022/01/13 01:34:33;;;;;;;1999.90;999.90;;;;;;;-1.52;62.58;103295.47;4993451;28;96909;-72
2022/01/13 01:37:01;;;;;;;1999.90;999.90;;;;;;;-1.52;63.18;103282.41;4991427;28;99129;-72
2022/01/13 01:39:29;;;;;;;1999.90;999.90;;;;;;;-1.50;63.28;103291.28;4989285;28;97622;-72
2022/01/13 01:41:57;;;;;;;1999.90;999.90;;;;;;;-1.47;62.62;103283.81;4987723;28;96871;-70
2022/01/13 01:44:30;;;;;;;1999.90;999.90;;;;;;;-1.45;62.77;103288.44;4989243;28;96769;-72
2022/01/13 01:47:00;;;;;;;1999.90;999.90;;;;;;;-1.45;63.24;103290.13;4989593;28;96804;-72
2022/01/13 01:49:32;;;;;;;1999.90;999.90;;;;;;;-1.44;62.92;103292.91;4968819;28;99489;-73
2022/01/13 01:52:02;;;;;;;1999.90;999.90;;;;;;;-1.43;62.75;103299.06;4983714;28;99398;-72
2022/01/13 01:54:29;;;;;;;1999.90;999.90;;;;;;;-1.42;62.50;103304.47;4988100;28;99012;-73
2022/01/13 01:56:57;;;;;;;1999.90;999.90;;;;;;;-1.39;63.05;103296.00;4986688;28;97379;-73
2022/01/13 01:59:29;;;;;;;1999.90;999.90;;;;;;;-1.39;63.16;103291.72;4987964;28;97555;-71
2022/01/13 02:01:58;;;;;;;1999.90;999.90;;;;;;;-1.38;62.80;103290.03;4983834;28;98472;-70
2022/01/13 02:04:27;;;;;;;1999.90;999.90;;;;;;;-1.35;62.85;103298.19;5001074;28;97363;-72
2022/01/13 02:06:59;;;;;;;1999.90;999.90;;;;;;;-1.35;62.86;103286.06;4984231;28;97863;-72
2022/01/13 02:09:27;;;;;;;1999.90;999.90;;;;;;;-1.36;62.49;103280.69;4965415;28;99257;-72
2022/01/13 02:11:59;;;;;;;1999.90;999.90;;;;;;;-1.34;62.54;103285.31;4987621;28;97584;-71
2022/01/13 02:14:35;;;;;;;1999.90;999.90;;;;;;;-1.33;63.03;103286.25;4981745;28;99856;-72
2022/01/13 02:17:12;;;;;;;1999.90;999.90;;;;;;;-1.33;62.62;103283.63;4969916;28;99815;-70
2022/01/13 02:19:42;;;;;;;1999.90;999.90;;;;;;;-1.36;62.63;103280.69;4986388;28;97781;-72
2022/01/13 02:22:12;;;;;;;1999.90;999.90;;;;;;;-1.36;62.43;103281.59;4985158;28;98940;-71
2022/01/13 02:24:40;;;;;;;1999.90;999.90;;;;;;;-1.35;62.85;103274.69;4981911;28;97913;-73
2022/01/13 02:27:08;;;;;;;1999.90;999.90;;;;;;;-1.35;62.20;103266.84;4985780;28;97554;-73
2022/01/13 02:29:36;;;;;;;1999.90;999.90;;;;;;;-1.35;62.70;103272.09;4985973;28;99183;-72
2022/01/13 02:32:05;;;;;;;1999.90;999.90;;;;;;;-1.38;62.35;103264.88;4988576;28;99038;-73
2022/01/13 02:34:33;;;;;;;1999.90;999.90;;;;;;;-1.37;62.62;103278.81;4987187;28;96763;-71
2022/01/13 02:37:03;;;;;;;1999.90;999.90;;;;;;;-1.37;62.27;103276.22;4985499;28;98458;-72
2022/01/13 02:39:32;;;;;;;1999.90;999.90;;;;;;;-1.38;62.40;103282.22;5000432;28;99339;-71
2022/01/13 02:42:01;;;;;;;1999.90;999.90;;;;;;;-1.35;62.21;103274.69;4985015;28;99058;-73
2022/01/13 02:44:31;;;;;;;1999.90;999.90;;;;;;;-1.37;62.18;103278.81;4987724;28;96858;-71
2022/01/13 02:47:20;;;;;;;1999.90;999.90;;;;;;;-1.39;62.60;103275.13;4984146;28;97758;-73
2022/01/13 02:50:07;;;;;;;1999.90;999.90;;;;;;;-1.46;62.63;103264.78;4966206;28;100083;-72
2022/01/13 02:52:36;;;;;;;1999.90;999.90;;;;;;;-1.47;62.42;103262.94;4983839;28;99806;-72
2022/01/13 02:55:05;;;;;;;1999.90;999.90;;;;;;;-1.48;62.85;103264.59;4985087;28;96923;-72
2022/01/13 02:57:33;;;;;;;1999.90;999.90;;;;;;;-1.50;62.82;103255.69;4985898;28;96938;-72
2022/01/13 03:00:01;;;;;;;1999.90;999.90;;;;;;;-1.46;62.14;103256.94;4982913;28;100504;-71
2022/01/13 03:02:31;;;;;;;1999.90;999.90;;;;;;;-1.46;62.74;103246.50;4960026;28;99194;-72
2022/01/13 03:05:00;;;;;;;1999.90;999.90;;;;;;;-1.50;62.31;103249.53;4982437;28;97529;-72
2022/01/13 03:07:42;;;;;;;1999.90;999.90;;;;;;;-1.51;62.19;103245.06;4999466;28;98427;-72
2022/01/13 03:10:15;;;;;;;1999.90;999.90;;;;;;;-1.56;62.31;103252.38;4983949;28;97843;-73
2022/01/13 03:13:10;;;;;;;1999.90;999.90;;;;;;;-1.61;62.61;103234.38;4988745;28;97882;-71
2022/01/13 03:15:38;;;;;;;1999.90;999.90;;;;;;;-1.62;62.21;103240.38;4986624;28;97074;-71
2022/01/13 03:18:06;;;;;;;1999.90;999.90;;;;;;;-1.64;62.48;103240.22;4983998;28;96782;-70
2022/01/13 03:20:34;;;;;;;1999.90;999.90;;;;;;;-1.63;62.77;103234.22;4999163;28;100409;-71
2022/01/13 03:23:04;;;;;;;1999.90;999.90;;;;;;;-1.61;62.44;103231.75;4981826;28;99483;-72
2022/01/13 03:25:33;;;;;;;1999.90;999.90;;;;;;;-1.63;62.40;103234.22;4984846;28;97819;-71
2022/01/13 03:28:07;;;;;;;1999.90;999.90;;;;;;;-1.62;62.92;103237.75;4989640;28;98372;-72
2022/01/13 03:30:35;;;;;;;1999.90;999.90;;;;;;;-1.63;63.12;103236.81;4986635;28;97692;-73
2022/01/13 03:33:03;;;;;;;1999.90;999.90;;;;;;;-1.63;62.58;103236.81;4987985;28;97528;-72
2022/01/13 03:35:31;;;;;;;1999.90;999.90;;;;;;;-1.65;62.88;103237.44;4984612;28;98348;-71
2022/01/13 03:37:59;;;;;;;1999.90;999.90;;;;;;;-1.64;62.52;103234.06;4988380;28;97282;-73
2022/01/13 03:40:27;;;;;;;1999.90;999.90;;;;;;;-1.64;62.91;103231.44;4986935;28;100055;-72
2022/01/13 03:42:57;;;;;;;1999.90;999.90;;;;;;;-1.63;62.88;103229.00;4989054;28;100601;-72
2022/01/13 03:45:25;;;;;;;1999.90;999.90;;;;;;;-1.59;62.34;103238.09;4984150;28;98100;-72
2022/01/13 03:47:56;;;;;;;1999.90;999.90;;;;;;;-1.59;62.83;103230.25;4988952;28;99023;-72
2022/01/13 03:50:23;;;;;;;1999.90;999.90;;;;;;;-1.58;62.22;103229.50;4986789;28;99409;-73
2022/01/13 03:53:29;;;;;;;1999.90;999.90;;;;;;;-1.59;62.36;103222.41;5005000;28;99687;-72
2022/01/13 03:56:34;;;;;;;1999.90;999.90;;;;;;;-1.57;62.94;103226.13;5000572;28;97570;-71
2022/01/13 03:59:35;;;;;;;1999.90;999.90;;;;;;;-1.54;62.40;103210.81;4991280;28;96922;-72
2022/01/13 04:02:08;;;;;;;1999.90;999.90;;;;;;;-1.56;62.68;103208.00;4984734;28;98336;-73
2022/01/13 04:04:39;;;;;;;1999.90;999.90;;;;;;;-1.58;62.66;103195.56;4986883;28;97894;-73
2022/01/13 04:07:13;;;;;;;1999.90;999.90;;;;;;;-1.61;62.94;103192.59;4987139;28;100240;-73
2022/01/13 04:10:26;;;;;;;1999.90;999.90;;;;;;;-1.72;63.55;103203.59;5003238;28;98011;-72
2022/01/13 04:12:55;;;;;;;1999.90;999.90;;;;;;;-1.72;63.08;103198.38;4988431;28;97698;-72
2022/01/13 04:15:28;;;;;;;1999.90;999.90;;;;;;;-1.75;63.58;103193.75;4987268;28;100722;-72
2022/01/13 04:17:56;;;;;;;1999.90;999.90;;;;;;;-1.77;63.00;103194.31;5005474;28;96904;-72
2022/01/13 04:20:24;;;;;;;1999.90;999.90;;;;;;;-1.79;63.02;103188.94;4988999;28;97219;-72
2022/01/13 04:22:52;;;;;;;1999.90;999.90;;;;;;;-1.79;63.33;103185.41;4989078;28;97711;-72
2022/01/13 04:25:22;;;;;;;1999.90;999.90;;;;;;;-1.82;63.79;103187.69;4985017;28;97705;-70
2022/01/13 04:27:50;;;;;;;1999.90;999.90;;;;;;;-1.82;63.12;103174.63;4987480;28;96905;-72
2022/01/13 04:30:44;;;;;;;1999.90;999.90;;;;;;;-1.83;63.71;103168.47;4987321;28;98108;-72
2022/01/13 04:33:14;;;;;;;1999.90;999.90;;;;;;;-1.86;63.97;103171.72;4985785;28;97778;-72
2022/01/13 04:35:42;;;;;;;1999.90;999.90;;;;;;;-1.85;63.68;103177.81;4982277;28;100656;-73
2022/01/13 04:38:10;;;;;;;1999.90;999.90;;;;;;;-1.86;63.34;103178.59;4984605;28;98687;-72
2022/01/13 04:40:44;;;;;;;1999.90;999.90;;;;;;;-1.85;63.05;103180.44;4982593;28;99126;-71
2022/01/13 04:43:12;;;;;;;1999.90;999.90;;;;;;;-1.85;63.92;103183.03;4984955;28;99565;-72
2022/01/13 04:45:40;;;;;;;1999.90;999.90;;;;;;;-1.86;63.93;103189.97;4968802;28;99439;-74
2022/01/13 04:48:08;;;;;;;1999.90;999.90;;;;;;;-1.83;63.35;103201.50;4988490;28;96810;-73
2022/01/13 04:50:37;;;;;;;1999.90;999.90;;;;;;;-1.80;63.64;103187.09;4990310;28;98414;-72
2022/01/13 04:53:05;;;;;;;1999.90;999.90;;;;;;;-1.76;63.64;103180.53;4970158;28;97780;-71
2022/01/13 04:55:35;;;;;;;1999.90;999.90;;;;;;;-1.73;63.72;103180.84;4987256;28;98907;-72
2022/01/13 04:58:03;;;;;;;1999.90;999.90;;;;;;;-1.72;62.92;103182.72;4985222;28;97029;-72
2022/01/13 05:00:32;;;;;;;1999.90;999.90;;;;;;;-1.72;63.61;103180.13;4985184;28;96972;-73
2022/01/13 05:03:00;;;;;;;1999.90;999.90;;;;;;;-1.72;63.11;103178.41;4984329;28;98152;-74
2022/01/13 05:05:28;;;;;;;1999.90;999.90;;;;;;;-1.68;63.46;103179.66;4984816;28;97948;-72
2022/01/13 05:07:57;;;;;;;1999.90;999.90;;;;;;;-1.67;63.03;103191.97;4984215;28;99151;-72
2022/01/13 05:10:25;;;;;;;1999.90;999.90;;;;;;;-1.65;63.21;103190.44;4984493;28;96931;-72
2022/01/13 05:12:56;;;;;;;1999.90;999.90;;;;;;;-1.65;63.86;103207.00;4984308;28;98169;-72
2022/01/13 05:15:26;;;;;;;1999.90;999.90;;;;;;;-1.60;63.16;103194.47;4988270;28;98697;-72
2022/01/13 05:20:39;;;;;;;1999.90;999.90;;;;;;;-1.59;63.72;103188.47;4981741;28;98508;-71
2022/01/13 05:23:10;;;;;;;1999.90;999.90;;;;;;;-1.65;63.70;103190.44;4985134;28;96810;-73
2022/01/13 05:25:38;;;;;;;1999.90;999.90;;;;;;;-1.65;63.32;103191.34;4987142;28;98008;-73
2022/01/13 05:28:06;;;;;;;1999.90;999.90;;;;;;;-1.66;63.80;103196.41;4987911;28;96938;-72
2022/01/13 05:30:34;;;;;;;1999.90;999.90;;;;;;;-1.67;63.28;103197.19;4981808;28;99201;-71
2022/01/13 05:33:01;;;;;;;1999.90;999.90;;;;;;;-1.68;63.22;103200.53;4986994;28;99314;-71
2022/01/13 05:35:29;;;;;;;1999.90;999.90;;;;;;;-1.71;63.28;103202.84;4986232;28;97891;-72
2022/01/13 05:37:57;;;;;;;1999.90;999.90;;;;;;;-1.71;63.59;103218.50;4987953;28;97152;-73
2022/01/13 05:40:26;;;;;;;1999.90;999.90;;;;;;;-1.74;63.73;103205.13;4982689;28;98522;-72
2022/01/13 05:42:54;;;;;;;1999.90;999.90;;;;;;;-1.76;63.30;103212.75;4964097;28;99525;-72
2022/01/13 05:45:28;;;;;;;1999.90;999.90;;;;;;;-1.74;64.21;103210.34;5004276;28;99793;-72
2022/01/13 05:47:57;;;;;;;1999.90;999.90;;;;;;;-1.75;64.00;103198.97;4980314;28;99037;-73
2022/01/13 05:50:25;;;;;;;1999.90;999.90;;;;;;;-1.74;63.55;103192.06;4983180;28;97935;-72
2022/01/13 05:52:53;;;;;;;1999.90;999.90;;;;;;;-1.72;63.54;103183.63;4977897;28;99372;-73
2022/01/13 05:55:21;;;;;;;1999.90;999.90;;;;;;;-1.66;63.11;103199.97;4984509;28;99222;-73
2022/01/13 05:57:51;;;;;;;1999.90;999.90;;;;;;;-1.63;63.52;103184.63;4982241;28;97422;-71
2022/01/13 06:00:20;;;;;;;1999.90;999.90;;;;;;;-1.67;63.40;103189.34;4982742;28;96961;-72
2022/01/13 06:02:47;;;;;;;1999.90;999.90;;;;;;;-1.65;63.33;103190.44;4983596;28;101277;-71
2022/01/13 06:05:16;;;;;;;1999.90;999.90;;;;;;;-1.64;63.86;103179.22;4983788;28;98527;-73
2022/01/13 06:07:45;;;;;;;1999.90;999.90;;;;;;;-1.64;63.61;103172.34;4984997;28;97382;-71
2022/01/13 06:10:18;;;;;;;1999.90;999.90;;;;;;;-1.65;64.12;103174.78;4962934;28;96994;-72
2022/01/13 06:12:47;;;;;;;1999.90;999.90;;;;;;;-1.65;64.20;103167.84;4982836;28;99085;-72
2022/01/13 06:15:19;;;;;;;1999.90;999.90;;;;;;;-1.63;64.05;103170.66;5000333;28;99619;-71
2022/01/13 06:17:48;;;;;;;1999.90;999.90;;;;;;;-1.61;63.62;103172.66;4986135;28;98862;-71
2022/01/13 06:20:17;;;;;;;1999.90;999.90;;;;;;;-1.60;63.86;103182.34;4985962;28;97146;-73
2022/01/13 06:22:46;;;;;;;1999.90;999.90;;;;;;;-1.62;63.68;103169.88;4985921;28;100094;-74
2022/01/13 06:25:15;;;;;;;1999.90;999.90;;;;;;;-1.62;64.08;103180.34;4986718;28;100569;-72
2022/01/13 06:27:43;;;;;;;1999.90;999.90;;;;;;;-1.64;64.24;103169.72;4990695;28;98580;-72
2022/01/13 06:30:32;;;;;;;1999.90;999.90;;;;;;;-1.65;63.67;103177.41;4990637;28;96929;-72
2022/01/13 06:33:00;;;;;;;1999.90;999.90;;;;;;;-1.66;63.63;103173.84;4989479;28;100415;-72
2022/01/13 06:35:27;;;;;;;1999.90;999.90;;;;;;;-1.70;63.80;103182.09;4990887;28;97552;-72
2022/01/13 06:37:55;;;;;;;1999.90;999.90;;;;;;;-1.74;65.19;103198.19;4988594;28;97146;-74
2022/01/13 06:40:24;;;;;;;1999.90;999.90;;;;;;;-1.73;64.36;103202.66;4989283;28;97456;-73
2022/01/13 06:42:52;;;;;;;1999.90;999.90;;;;;;;-1.72;64.20;103207.13;4991303;28;97733;-73
2022/01/13 06:45:20;;;;;;;1999.90;999.90;;;;;;;-1.70;64.08;103208.22;4992169;28;97581;-71
2022/01/13 06:47:49;;;;;;;1999.90;999.90;;;;;;;-1.69;64.37;103210.09;4990694;28;97219;-72
2022/01/13 06:50:17;;;;;;;1999.90;999.90;;;;;;;-1.69;63.89;103210.09;4985332;28;96954;-73
2022/01/13 06:52:47;;;;;;;1999.90;999.90;;;;;;;-1.71;64.67;103219.44;4981159;28;97750;-71
2022/01/13 06:55:15;;;;;;;1999.90;999.90;;;;;;;-1.66;63.88;103215.63;4980194;28;98680;-70
2022/01/13 06:57:43;;;;;;;1999.90;999.90;;;;;;;-1.71;64.73;103229.88;4983293;28;97060;-71
2022/01/13 07:00:12;;;;;;;1999.90;999.90;;;;;;;-1.75;64.67;103231.97;4985549;28;97771;-69
2022/01/13 07:02:39;;;;;;;1999.90;999.90;;;;;;;-1.78;64.42;103224.75;4985512;28;96929;-70
2022/01/13 07:05:10;;;;;;;1999.90;999.90;;;;;;;-1.82;64.15;103221.63;4985687;28;99235;-71
2022/01/13 07:07:39;;;;;;;1999.90;999.90;;;;;;;-1.87;64.94;103232.47;4997603;28;96719;-71
2022/01/13 07:10:09;;;;;;;1999.90;999.90;;;;;;;-1.83;64.39;103227.59;4985878;28;96955;-71
2022/01/13 07:12:37;;;;;;;1999.90;999.90;;;;;;;-1.88;65.32;103227.09;4985937;28;98468;-70
2022/01/13 07:15:06;;;;;;;1999.90;999.90;;;;;;;-1.96;65.34;103221.03;5000786;28;99323;-70
2022/01/13 07:17:34;;;;;;;1999.90;999.90;;;;;;;-1.93;64.71;103229.22;4984070;28;96937;-71
2022/01/13 07:20:03;;;;;;;1999.90;999.90;;;;;;;-1.95;65.27;103238.53;4986347;28;99128;-69
2022/01/13 07:22:32;;;;;;;1999.90;999.90;;;;;;;-2.00;65.33;103239.69;4994856;28;98168;-68
2022/01/13 07:25:00;;;;;;;1999.90;999.90;;;;;;;-2.00;65.07;103231.88;4970738;28;97007;-71
2022/01/13 07:27:28;;;;;;;1999.90;999.90;;;;;;;-1.98;65.20;103235.56;4986405;28;97145;-72
2022/01/13 07:29:55;;;;;;;1999.90;999.90;;;;;;;-1.98;65.42;103225.13;4985169;28;97328;-72
2022/01/13 07:32:23;;;;;;;1999.90;999.90;;;;;;;-1.96;64.83;103223.63;5001027;28;98870;-73
2022/01/13 07:34:51;;;;;;;1999.90;999.90;;;;;;;-1.92;65.30;103236.25;4982700;28;98863;-71
2022/01/13 07:37:20;;;;;;;1999.90;999.90;;;;;;;-1.89;64.98;103226.16;4987776;28;96779;-71
2022/01/13 07:39:50;;;;;;;1999.90;999.90;;;;;;;-1.86;64.84;103222.97;4986795;28;97106;-71
2022/01/13 07:42:18;;;;;;;1999.90;999.90;;;;;;;-1.86;64.96;103231.72;4981382;28;98784;-71
2022/01/13 07:44:46;;;;;;;1999.90;999.90;;;;;;;-1.85;64.65;103223.13;4987585;28;99280;-71
2022/01/13 07:47:13;;;;;;;1999.90;999.90;;;;;;;-1.85;64.93;103223.13;4987661;28;96769;-72
2022/01/13 07:49:41;;;;;;;1999.90;999.90;;;;;;;-1.82;64.85;103213.00;4985556;28;96732;-72
2022/01/13 07:52:08;;;;;;;1999.90;999.90;;;;;;;-1.79;64.53;103216.72;4987228;28;98040;-72
2022/01/13 07:54:36;;;;;;;1999.90;999.90;;;;;;;-1.79;64.95;103214.09;4985755;28;98924;-72
2022/01/13 07:57:05;;;;;;;1999.90;999.90;;;;;;;-1.79;64.99;103211.50;4987159;28;96943;-72
2022/01/13 07:59:33;;;;;;;1999.90;999.90;;;;;;;-1.78;64.95;103214.31;4979764;28;97438;-72
2022/01/13 08:02:01;;;;;;;1999.90;999.90;;;;;;;-1.76;64.87;103222.28;4987953;28;98816;-72
2022/01/13 08:04:29;;;;;;;1999.90;999.90;;;;;;;-1.78;64.73;103219.53;4987039;28;99132;-71
2022/01/13 08:06:59;;;;;;;1999.90;999.90;;;;;;;-1.82;65.76;103223.44;4987441;28;96956;-71
2022/01/13 08:09:27;;;;;;;1999.90;999.90;;;;;;;-1.77;64.70;103230.84;4984795;28;96619;-71
2022/01/13 08:11:54;;;;;;;1999.90;999.90;;;;;;;-1.76;64.61;103222.28;4982255;28;101061;-72
2022/01/13 08:14:23;;;;;;;1999.90;999.90;;;;;;;-1.71;64.52;103229.88;4992885;28;98898;-73
2022/01/13 08:16:56;;;;;;;1999.90;999.90;;;;;;;-1.67;64.94;103239.88;4985899;28;96807;-71
2022/01/13 08:22:09;;;;;;;1999.90;999.90;;;;;;;-1.63;64.72;103223.78;4987556;28;97761;-72
2022/01/13 08:24:37;;;;;;;1999.90;999.90;;;;;;;-1.59;64.94;103231.19;4970710;28;99306;-72
2022/01/13 08:27:05;;;;;;;1999.90;999.90;;;;;;;-1.58;64.60;103247.78;4992133;28;97066;-72
2022/01/13 08:29:34;;;;;;;1999.90;999.90;;;;;;;-1.57;64.53;103245.34;4974489;28;96973;-72
2022/01/13 08:32:02;;;;;;;1999.90;999.90;;;;;;;-1.57;64.42;103236.56;4989336;28;102102;-73
2022/01/13 08:34:30;;;;;;;1999.90;999.90;;;;;;;-1.54;64.45;103236.91;4990393;28;99291;-70
2022/01/13 08:36:58;;;;;;;1999.90;999.90;;;;;;;-1.54;64.10;103245.66;4992001;28;96946;-73
2022/01/13 08:39:26;;;;;;;1999.90;999.90;;;;;;;-1.52;64.32;103238.03;4989932;28;96844;-71
2022/01/13 08:41:53;;;;;;;1999.90;999.90;;;;;;;-1.52;64.48;103231.09;4990781;28;97192;-71
2022/01/13 08:44:21;;;;;;;1999.90;999.90;;;;;;;-1.51;64.39;103234.63;4993460;28;97791;-71
2022/01/13 08:46:50;;;;;;;1999.90;999.90;;;;;;;-1.50;64.60;103241.69;4991348;28;96792;-71
2022/01/13 08:49:18;;;;;;;1999.90;999.90;;;;;;;-1.50;64.10;103242.63;4990336;28;96820;-71
2022/01/13 08:51:46;;;;;;;1999.90;999.90;;;;;;;-1.48;64.20;103242.78;4987848;28;99288;-71
2022/01/13 08:54:13;;;;;;;1999.90;999.90;;;;;;;-1.53;64.80;103239.69;4989624;28;98483;-71
2022/01/13 08:56:41;;;;;;;1999.90;999.90;;;;;;;-1.52;64.77;103231.09;4987819;28;97048;-71
2022/01/13 08:59:09;;;;;;;1999.90;999.90;;;;;;;-1.49;64.62;103247.09;4990250;28;97064;-71
2022/01/13 09:01:36;;;;;;;1999.90;999.90;;;;;;;-1.47;64.91;103244.66;4983163;28;101735;-71
2022/01/13 09:04:06;;;;;;;1999.90;999.90;;;;;;;-1.47;64.68;103248.16;4988215;28;100415;-71
2022/01/13 09:06:34;;;;;;;1999.90;999.90;;;;;;;-1.46;64.31;103236.97;4969050;28;97038;-71
2022/01/13 09:09:02;;;;;;;1999.90;999.90;;;;;;;-1.44;64.28;103248.53;4971772;28;96893;-71
2022/01/13 09:11:30;;;;;;;1999.90;999.90;;;;;;;-1.43;64.41;103234.69;4984617;28;98985;-71
2022/01/13 09:13:58;;;;;;;1999.90;999.90;;;;;;;-1.41;64.33;103241.00;4984898;28;98372;-72
2022/01/13 09:16:29;;;;;;;1999.90;999.90;;;;;;;-1.39;64.08;103238.56;4985193;28;98291;-72
2022/01/13 09:19:08;;;;;;;1999.90;999.90;;;;;;;-1.36;64.22;103244.13;4989284;28;96864;-72
2022/01/13 09:21:39;;;;;;;1999.90;999.90;;;;;;;-1.35;64.48;103243.34;4988227;28;98958;-71
2022/01/13 09:24:08;;;;;;;1999.90;999.90;;;;;;;-1.35;64.49;103246.91;4988260;28;97691;-72
2022/01/13 09:27:01;;;;;;;1999.90;999.90;;;;;;;-1.35;64.91;103257.34;4988226;28;96867;-72
2022/01/13 09:29:34;;;;;;;1999.90;999.90;;;;;;;-1.34;64.91;103253.97;4990102;28;97123;-72
2022/01/13 09:32:03;;;;;;;1999.90;999.90;;;;;;;-1.35;64.90;103251.19;4988454;28;97576;-71
2022/01/13 09:34:30;;;;;;;1999.90;999.90;;;;;;;-1.34;65.12;103256.56;4988339;28;97604;-70
2022/01/13 09:36:59;;;;;;;1999.90;999.90;;;;;;;-1.32;64.47;103254.16;4986434;28;97177;-71
2022/01/13 09:39:27;;;;;;;1999.90;999.90;;;;;;;-1.30;64.88;103247.38;4988531;28;97012;-72
2022/01/13 09:41:56;;;;;;;1999.90;999.90;;;;;;;-1.29;65.31;103244.97;4977321;28;99635;-72
2022/01/13 09:44:27;;;;;;;1999.90;999.90;;;;;;;-1.30;65.37;103242.16;4989832;28;99733;-72
2022/01/13 09:46:56;;;;;;;1999.90;999.90;;;;;;;-1.31;65.22;103237.72;4979880;28;96895;-71
2022/01/13 09:49:25;;;;;;;1999.90;999.90;;;;;;;-1.29;64.80;103246.63;4987011;28;98330;-72
2022/01/13 09:51:53;;;;;;;1999.90;999.90;;;;;;;-1.24;64.82;103245.44;4988293;28;97829;-72
2022/01/13 09:54:22;;;;;;;1999.90;999.90;;;;;;;-1.21;64.50;103248.38;4995501;28;99219;-72
2022/01/13 09:56:50;;;;;;;1999.90;999.90;;;;;;;-1.16;64.76;103260.25;4992145;28;96771;-72
2022/01/13 09:59:17;;;;;;;1999.90;999.90;;;;;;;-1.11;64.38;103261.66;4997288;28;96669;-72
2022/01/13 10:01:45;;;;;;;1999.90;999.90;;;;;;;-1.10;64.14;103271.34;4992062;28;98724;-73
2022/01/13 10:04:13;;;;;;;1999.90;999.90;;;;;;;-1.08;63.99;103276.00;4992346;28;97736;-70
2022/01/13 10:06:44;;;;;;;1999.90;999.90;;;;;;;-1.07;64.17;103271.69;4990173;28;97192;-70
2022/01/13 10:09:13;;;;;;;1999.90;999.90;;;;;;;-1.06;64.32;103268.31;4990639;28;96886;-71
2022/01/13 10:11:48;;;;;;;1999.90;999.90;;;;;;;-1.06;63.84;103269.25;4988810;28;97691;-71
2022/01/13 10:16:23;;;;;;;1999.90;999.90;;;;;;;-1.05;64.31;103259.72;4991899;28;98767;-71
2022/01/13 10:17:05;;;;;;;1999.90;999.90;;;;;;;-1.05;64.32;103264.94;4988833;28;96927;-70
2022/01/13 10:19:35;;;;;;;1999.90;999.90;;;;;;;-1.07;64.91;103263.84;4986238;28;96881;-72
2022/01/13 10:22:05;;;;;;;1999.90;999.90;;;;;;;-1.07;64.62;103274.31;4987630;28;100202;-71
2022/01/13 10:24:34;;;;;;;1999.90;999.90;;;;;;;-1.08;64.25;103268.16;4988964;28;100503;-72
2022/01/13 10:27:06;;;;;;;1999.90;999.90;;;;;;;-1.08;64.38;103264.59;4985882;28;96866;-71
2022/01/13 10:29:45;;;;;;;1999.90;999.90;;;;;;;-1.07;64.77;103269.97;4990959;28;96624;-71
2022/01/13 10:32:16;;;;;;;1999.90;999.90;;;;;;;-1.06;64.54;103258.78;4987988;28;97942;-72
2022/01/13 10:34:46;;;;;;;1999.90;999.90;;;;;;;-1.05;64.21;103258.00;4985900;28;99373;-71
2022/01/13 10:37:16;;;;;;;1999.90;999.90;;;;;;;-1.04;63.97;103262.50;4988411;28;97346;-72
2022/01/13 10:39:59;;;;;;;1999.90;999.90;;;;;;;-1.05;64.34;103262.34;4987955;28;96772;-72
2022/01/13 10:45:33;;;;;;;1999.90;999.90;;;;;;;-1.05;64.50;103249.28;4987221;28;99718;-69
2022/01/13 10:48:03;;;;;;;1999.90;999.90;;;;;;;-1.02;64.12;103254.81;4988505;28;96718;-70
2022/01/13 10:50:33;;;;;;;1999.90;999.90;;;;;;;-1.05;64.54;103244.94;4998984;28;96758;-70
2022/01/13 10:53:03;;;;;;;1999.90;999.90;;;;;;;-1.02;64.43;103246.97;4987605;28;98769;-71
2022/01/13 10:55:33;;;;;;;1999.90;999.90;;;;;;;-1.02;64.51;103249.59;4985101;28;99675;-71
2022/01/13 10:58:14;;;;;;;1999.90;999.90;;;;;;;-1.03;64.34;103232.97;4986783;28;97294;-72
2022/01/13 11:00:44;;;;;;;1999.90;999.90;;;;;;;-0.98;64.25;103230.88;4984502;28;97263;-70
2022/01/13 11:03:14;;;;;;;1999.90;999.90;;;;;;;-0.95;64.37;103234.72;4983786;28;99848;-70
2022/01/13 11:05:46;;;;;;;1999.90;999.90;;;;;;;-0.91;64.14;103225.53;4987926;28;99180;-71
2022/01/13 11:08:26;;;;;;;1999.90;999.90;;;;;;;-0.87;64.19;103232.94;4990358;28;96690;-71
2022/01/13 11:10:55;;;;;;;1999.90;999.90;;;;;;;-0.85;64.35;103213.09;4987769;28;97261;-71
2022/01/13 11:13:27;;;;;;;1999.90;999.90;;;;;;;-0.82;64.18;103208.19;4986048;28;97705;-72
2022/01/13 11:15:56;;;;;;;1999.90;999.90;;;;;;;-0.76;64.25;103206.25;4981885;28;97196;-73